sensor_id;sensor_type;location;lat;lon;timestamp;temperature;humidity
36416;DHT22;22447;44.530;18.620;2022-08-19T00:01:48;20.90;99.90
36416;DHT22;22447;44.530;18.620;2022-08-19T00:04:16;20.80;99.90
36416;DHT22;22447;44.530;18.620;2022-08-19T00:06:44;20.70;99.90
36416;DHT22;22447;44.530;18.620;2022-08-19T00:09:12;20.60;99.90
36416;DHT22;22447;44.530;18.620;2022-08-19T00:11:40;20.70;99.90
36416;DHT22;22447;44.530;18.620;2022-08-19T00:14:08;20.70;99.90
36416;DHT22;22447;44.530;18.620;2022-08-19T00:16:36;20.60;99.90
36416;DHT22;22447;44.530;18.620;2022-08-19T00:19:03;20.60;99.90
36416;DHT22;22447;44.530;18.620;2022-08-19T00:21:29;20.50;99.90
36416;DHT22;22447;44.530;18.620;2022-08-19T00:23:56;20.50;99.90
36416;DHT22;22447;44.530;18.620;2022-08-19T00:26:25;20.50;99.90
36416;DHT22;22447;44.530;18.620;2022-08-19T00:28:51;20.40;99.90
36416;DHT22;22447;44.530;18.620;2022-08-19T00:31:17;20.40;99.90
36416;DHT22;22447;44.530;18.620;2022-08-19T00:33:43;20.40;99.90
36416;DHT22;22447;44.530;18.620;2022-08-19T00:36:10;20.40;99.90
36416;DHT22;22447;44.530;18.620;2022-08-19T00:38:38;20.40;99.90
36416;DHT22;22447;44.530;18.620;2022-08-19T00:41:07;20.40;99.90
36416;DHT22;22447;44.530;18.620;2022-08-19T00:43:36;20.30;99.90
36416;DHT22;22447;44.530;18.620;2022-08-19T00:46:04;20.30;99.90
36416;DHT22;22447;44.530;18.620;2022-08-19T00:48:32;20.20;99.90
36416;DHT22;22447;44.530;18.620;2022-08-19T00:50:59;20.10;99.90
36416;DHT22;22447;44.530;18.620;2022-08-19T00:53:28;20.10;99.90
36416;DHT22;22447;44.530;18.620;2022-08-19T00:55:58;20.00;99.90
36416;DHT22;22447;44.530;18.620;2022-08-19T00:58:26;19.90;99.90
36416;DHT22;22447;44.530;18.620;2022-08-19T01:00:53;19.90;99.90
36416;DHT22;22447;44.530;18.620;2022-08-19T01:03:21;20.00;99.90
36416;DHT22;22447;44.530;18.620;2022-08-19T01:05:49;19.90;99.90
36416;DHT22;22447;44.530;18.620;2022-08-19T01:08:17;19.90;99.90
36416;DHT22;22447;44.530;18.620;2022-08-19T01:10:47;19.90;99.90
36416;DHT22;22447;44.530;18.620;2022-08-19T01:13:17;19.90;99.90
36416;DHT22;22447;44.530;18.620;2022-08-19T01:15:48;20.00;99.90
36416;DHT22;22447;44.530;18.620;2022-08-19T01:18:16;19.80;99.90
36416;DHT22;22447;44.530;18.620;2022-08-19T01:20:43;19.80;99.90
36416;DHT22;22447;44.530;18.620;2022-08-19T01:23:10;19.80;99.90
36416;DHT22;22447;44.530;18.620;2022-08-19T01:25:51;19.80;99.90
36416;DHT22;22447;44.530;18.620;2022-08-19T01:28:24;19.80;99.90
36416;DHT22;22447;44.530;18.620;2022-08-19T01:30:52;19.90;99.90
36416;DHT22;22447;44.530;18.620;2022-08-19T01:33:18;19.80;99.90
36416;DHT22;22447;44.530;18.620;2022-08-19T01:35:45;19.80;99.90
36416;DHT22;22447;44.530;18.620;2022-08-19T01:38:21;19.90;99.90
36416;DHT22;22447;44.530;18.620;2022-08-19T01:40:48;19.80;99.90
36416;DHT22;22447;44.530;18.620;2022-08-19T01:43:14;19.80;99.90
36416;DHT22;22447;44.530;18.620;2022-08-19T01:45:41;19.80;99.90
36416;DHT22;22447;44.530;18.620;2022-08-19T01:48:07;19.80;99.90
36416;DHT22;22447;44.530;18.620;2022-08-19T01:50:34;19.70;99.90
36416;DHT22;22447;44.530;18.620;2022-08-19T01:53:02;19.80;99.90
36416;DHT22;22447;44.530;18.620;2022-08-19T01:55:29;19.80;99.90
36416;DHT22;22447;44.530;18.620;2022-08-19T01:57:58;19.90;99.90
36416;DHT22;22447;44.530;18.620;2022-08-19T02:00:28;19.80;99.90
36416;DHT22;22447;44.530;18.620;2022-08-19T02:02:55;19.70;99.90
36416;DHT22;22447;44.530;18.620;2022-08-19T02:05:22;19.70;99.90
36416;DHT22;22447;44.530;18.620;2022-08-19T02:07:48;19.60;99.90
36416;DHT22;22447;44.530;18.620;2022-08-19T02:10:21;19.60;99.90
36416;DHT22;22447;44.530;18.620;2022-08-19T02:12:47;19.60;99.90
36416;DHT22;22447;44.530;18.620;2022-08-19T02:15:15;19.50;99.90
36416;DHT22;22447;44.530;18.620;2022-08-19T02:17:42;19.50;99.90
36416;DHT22;22447;44.530;18.620;2022-08-19T02:20:08;19.50;99.90
36416;DHT22;22447;44.530;18.620;2022-08-19T02:22:34;19.50;99.90
36416;DHT22;22447;44.530;18.620;2022-08-19T02:25:01;19.50;99.90
36416;DHT22;22447;44.530;18.620;2022-08-19T02:27:27;19.40;99.90
36416;DHT22;22447;44.530;18.620;2022-08-19T02:29:53;19.40;99.90
36416;DHT22;22447;44.530;18.620;2022-08-19T02:32:19;19.40;99.90
36416;DHT22;22447;44.530;18.620;2022-08-19T02:34:46;19.30;99.90
36416;DHT22;22447;44.530;18.620;2022-08-19T02:37:13;19.30;99.90
36416;DHT22;22447;44.530;18.620;2022-08-19T02:39:58;19.30;99.90
36416;DHT22;22447;44.530;18.620;2022-08-19T02:42:24;19.40;99.90
36416;DHT22;22447;44.530;18.620;2022-08-19T02:44:50;19.30;99.90
36416;DHT22;22447;44.530;18.620;2022-08-19T02:47:18;19.30;99.90
36416;DHT22;22447;44.530;18.620;2022-08-19T02:49:45;19.40;99.90
36416;DHT22;22447;44.530;18.620;2022-08-19T02:52:11;19.30;99.90
36416;DHT22;22447;44.530;18.620;2022-08-19T02:54:37;19.20;99.90
36416;DHT22;22447;44.530;18.620;2022-08-19T02:57:04;19.20;99.90
36416;DHT22;22447;44.530;18.620;2022-08-19T02:59:32;19.10;99.90
36416;DHT22;22447;44.530;18.620;2022-08-19T03:01:58;19.20;99.90
36416;DHT22;22447;44.530;18.620;2022-08-19T03:04:24;19.20;99.90
36416;DHT22;22447;44.530;18.620;2022-08-19T03:06:50;19.10;99.90
36416;DHT22;22447;44.530;18.620;2022-08-19T03:09:18;19.00;99.90
36416;DHT22;22447;44.530;18.620;2022-08-19T03:11:45;19.00;99.90
36416;DHT22;22447;44.530;18.620;2022-08-19T03:14:12;18.90;99.90
36416;DHT22;22447;44.530;18.620;2022-08-19T03:16:47;18.90;99.90
36416;DHT22;22447;44.530;18.620;2022-08-19T03:19:16;18.90;99.90
36416;DHT22;22447;44.530;18.620;2022-08-19T03:21:43;18.80;99.90
36416;DHT22;22447;44.530;18.620;2022-08-19T03:24:13;18.80;99.90
36416;DHT22;22447;44.530;18.620;2022-08-19T03:26:44;18.80;99.90
36416;DHT22;22447;44.530;18.620;2022-08-19T03:29:10;18.80;99.90
36416;DHT22;22447;44.530;18.620;2022-08-19T03:31:38;18.80;99.90
36416;DHT22;22447;44.530;18.620;2022-08-19T03:34:05;18.80;99.90
36416;DHT22;22447;44.530;18.620;2022-08-19T03:36:31;18.70;99.90
36416;DHT22;22447;44.530;18.620;2022-08-19T03:38:59;18.70;99.90
36416;DHT22;22447;44.530;18.620;2022-08-19T03:41:32;18.60;99.90
36416;DHT22;22447;44.530;18.620;2022-08-19T03:43:59;18.60;99.90
36416;DHT22;22447;44.530;18.620;2022-08-19T03:46:28;18.60;99.90
36416;DHT22;22447;44.530;18.620;2022-08-19T03:48:57;18.70;99.90
36416;DHT22;22447;44.530;18.620;2022-08-19T03:53:51;18.70;99.90
36416;DHT22;22447;44.530;18.620;2022-08-19T03:56:18;18.60;99.90
36416;DHT22;22447;44.530;18.620;2022-08-19T03:58:44;18.70;99.90
36416;DHT22;22447;44.530;18.620;2022-08-19T04:01:12;18.70;99.90
36416;DHT22;22447;44.530;18.620;2022-08-19T04:03:39;18.70;99.90
36416;DHT22;22447;44.530;18.620;2022-08-19T04:06:29;18.70;99.90
36416;DHT22;22447;44.530;18.620;2022-08-19T04:08:57;18.60;99.90
36416;DHT22;22447;44.530;18.620;2022-08-19T04:11:30;18.80;99.90
36416;DHT22;22447;44.530;18.620;2022-08-19T04:13:57;18.80;99.90
36416;DHT22;22447;44.530;18.620;2022-08-19T04:16:25;18.80;99.90
36416;DHT22;22447;44.530;18.620;2022-08-19T04:18:55;18.90;99.90
36416;DHT22;22447;44.530;18.620;2022-08-19T04:21:24;18.90;99.90
36416;DHT22;22447;44.530;18.620;2022-08-19T04:23:50;19.00;99.90
36416;DHT22;22447;44.530;18.620;2022-08-19T04:26:19;18.90;99.90
36416;DHT22;22447;44.530;18.620;2022-08-19T04:28:47;18.80;99.90
36416;DHT22;22447;44.530;18.620;2022-08-19T04:31:19;18.80;99.90
36416;DHT22;22447;44.530;18.620;2022-08-19T04:33:45;18.90;99.90
36416;DHT22;22447;44.530;18.620;2022-08-19T04:36:20;19.00;99.90
36416;DHT22;22447;44.530;18.620;2022-08-19T04:38:48;19.10;99.90
36416;DHT22;22447;44.530;18.620;2022-08-19T04:41:14;19.20;99.90
36416;DHT22;22447;44.530;18.620;2022-08-19T04:43:59;19.20;99.90
36416;DHT22;22447;44.530;18.620;2022-08-19T04:46:25;19.30;99.90
36416;DHT22;22447;44.530;18.620;2022-08-19T04:48:51;19.20;99.90
36416;DHT22;22447;44.530;18.620;2022-08-19T04:51:18;19.40;99.90
36416;DHT22;22447;44.530;18.620;2022-08-19T04:53:46;19.40;99.90
36416;DHT22;22447;44.530;18.620;2022-08-19T04:56:14;19.50;99.90
36416;DHT22;22447;44.530;18.620;2022-08-19T04:58:42;19.50;99.90
36416;DHT22;22447;44.530;18.620;2022-08-19T05:01:13;19.70;99.90
36416;DHT22;22447;44.530;18.620;2022-08-19T05:03:39;19.80;99.90
36416;DHT22;22447;44.530;18.620;2022-08-19T05:06:07;19.90;99.90
36416;DHT22;22447;44.530;18.620;2022-08-19T05:08:34;19.90;99.90
36416;DHT22;22447;44.530;18.620;2022-08-19T05:11:10;20.00;99.90
36416;DHT22;22447;44.530;18.620;2022-08-19T05:13:37;20.00;99.90
36416;DHT22;22447;44.530;18.620;2022-08-19T05:16:03;20.10;99.90
36416;DHT22;22447;44.530;18.620;2022-08-19T05:18:29;20.20;99.90
36416;DHT22;22447;44.530;18.620;2022-08-19T05:21:16;20.20;99.90
36416;DHT22;22447;44.530;18.620;2022-08-19T05:24:01;20.30;99.90
36416;DHT22;22447;44.530;18.620;2022-08-19T05:26:27;20.30;99.90
36416;DHT22;22447;44.530;18.620;2022-08-19T05:28:54;20.30;99.90
36416;DHT22;22447;44.530;18.620;2022-08-19T05:31:20;20.50;99.90
36416;DHT22;22447;44.530;18.620;2022-08-19T05:33:47;20.60;99.90
36416;DHT22;22447;44.530;18.620;2022-08-19T05:36:13;20.80;99.90
36416;DHT22;22447;44.530;18.620;2022-08-19T05:38:39;21.00;99.90
36416;DHT22;22447;44.530;18.620;2022-08-19T05:41:13;21.10;99.90
36416;DHT22;22447;44.530;18.620;2022-08-19T05:43:40;21.20;99.90
36416;DHT22;22447;44.530;18.620;2022-08-19T05:46:07;21.30;99.90
36416;DHT22;22447;44.530;18.620;2022-08-19T05:48:35;21.50;99.90
36416;DHT22;22447;44.530;18.620;2022-08-19T05:51:07;21.60;99.90
36416;DHT22;22447;44.530;18.620;2022-08-19T05:53:34;21.70;99.90
36416;DHT22;22447;44.530;18.620;2022-08-19T05:56:08;21.90;99.90
36416;DHT22;22447;44.530;18.620;2022-08-19T05:58:36;22.10;99.90
36416;DHT22;22447;44.530;18.620;2022-08-19T06:01:03;22.20;99.90
36416;DHT22;22447;44.530;18.620;2022-08-19T06:03:35;22.30;99.90
36416;DHT22;22447;44.530;18.620;2022-08-19T06:06:07;22.50;99.90
36416;DHT22;22447;44.530;18.620;2022-08-19T06:08:38;22.70;99.90
36416;DHT22;22447;44.530;18.620;2022-08-19T06:11:32;22.90;99.90
36416;DHT22;22447;44.530;18.620;2022-08-19T06:14:10;23.00;99.90
36416;DHT22;22447;44.530;18.620;2022-08-19T06:16:44;23.20;99.90
36416;DHT22;22447;44.530;18.620;2022-08-19T06:19:14;23.40;99.90
36416;DHT22;22447;44.530;18.620;2022-08-19T06:21:43;23.70;99.90
36416;DHT22;22447;44.530;18.620;2022-08-19T06:24:11;23.90;99.60
36416;DHT22;22447;44.530;18.620;2022-08-19T06:26:40;24.00;99.90
36416;DHT22;22447;44.530;18.620;2022-08-19T06:29:08;24.20;99.90
36416;DHT22;22447;44.530;18.620;2022-08-19T06:31:35;24.40;99.20
36416;DHT22;22447;44.530;18.620;2022-08-19T06:34:04;24.60;97.60
36416;DHT22;22447;44.530;18.620;2022-08-19T06:36:36;24.80;95.00
36416;DHT22;22447;44.530;18.620;2022-08-19T06:39:11;25.10;94.20
36416;DHT22;22447;44.530;18.620;2022-08-19T06:41:40;25.30;94.50
36416;DHT22;22447;44.530;18.620;2022-08-19T06:44:13;25.50;93.10
36416;DHT22;22447;44.530;18.620;2022-08-19T06:46:41;25.70;92.30
36416;DHT22;22447;44.530;18.620;2022-08-19T06:49:07;25.90;92.30
36416;DHT22;22447;44.530;18.620;2022-08-19T06:51:35;26.10;90.20
36416;DHT22;22447;44.530;18.620;2022-08-19T06:54:02;26.40;88.70
36416;DHT22;22447;44.530;18.620;2022-08-19T06:56:30;26.70;90.10
36416;DHT22;22447;44.530;18.620;2022-08-19T06:59:10;27.00;90.70
36416;DHT22;22447;44.530;18.620;2022-08-19T07:01:39;27.20;88.20
36416;DHT22;22447;44.530;18.620;2022-08-19T07:04:07;27.30;83.20
36416;DHT22;22447;44.530;18.620;2022-08-19T07:06:35;27.50;83.70
36416;DHT22;22447;44.530;18.620;2022-08-19T07:09:04;27.80;83.40
36416;DHT22;22447;44.530;18.620;2022-08-19T07:11:30;28.00;81.30
36416;DHT22;22447;44.530;18.620;2022-08-19T07:13:58;27.90;80.80
36416;DHT22;22447;44.530;18.620;2022-08-19T07:16:25;28.30;79.80
36416;DHT22;22447;44.530;18.620;2022-08-19T07:18:50;28.60;77.20
36416;DHT22;22447;44.530;18.620;2022-08-19T07:21:23;28.80;75.80
36416;DHT22;22447;44.530;18.620;2022-08-19T07:23:50;29.20;75.40
36416;DHT22;22447;44.530;18.620;2022-08-19T07:26:22;29.30;71.90
36416;DHT22;22447;44.530;18.620;2022-08-19T07:28:49;29.40;70.20
36416;DHT22;22447;44.530;18.620;2022-08-19T07:31:18;29.60;70.10
36416;DHT22;22447;44.530;18.620;2022-08-19T07:33:47;29.60;69.10
36416;DHT22;22447;44.530;18.620;2022-08-19T07:36:16;29.60;69.00
36416;DHT22;22447;44.530;18.620;2022-08-19T07:38:44;29.90;70.50
36416;DHT22;22447;44.530;18.620;2022-08-19T07:41:13;30.40;68.10
36416;DHT22;22447;44.530;18.620;2022-08-19T07:43:40;30.80;65.60
36416;DHT22;22447;44.530;18.620;2022-08-19T07:46:06;31.20;67.30
36416;DHT22;22447;44.530;18.620;2022-08-19T07:48:33;31.60;63.80
36416;DHT22;22447;44.530;18.620;2022-08-19T07:51:01;31.60;61.50
36416;DHT22;22447;44.530;18.620;2022-08-19T07:53:29;32.00;60.70
36416;DHT22;22447;44.530;18.620;2022-08-19T07:55:56;32.20;60.00
36416;DHT22;22447;44.530;18.620;2022-08-19T07:58:25;32.50;56.70
36416;DHT22;22447;44.530;18.620;2022-08-19T08:00:53;32.80;55.00
36416;DHT22;22447;44.530;18.620;2022-08-19T08:03:22;33.00;56.30
36416;DHT22;22447;44.530;18.620;2022-08-19T08:06:08;33.00;54.80
36416;DHT22;22447;44.530;18.620;2022-08-19T08:08:53;33.20;53.90
36416;DHT22;22447;44.530;18.620;2022-08-19T08:11:42;33.40;53.30
36416;DHT22;22447;44.530;18.620;2022-08-19T08:14:25;33.50;52.20
36416;DHT22;22447;44.530;18.620;2022-08-19T08:16:52;33.80;53.50
36416;DHT22;22447;44.530;18.620;2022-08-19T08:19:21;33.90;52.20
36416;DHT22;22447;44.530;18.620;2022-08-19T08:21:49;33.90;51.60
36416;DHT22;22447;44.530;18.620;2022-08-19T08:24:16;34.00;51.00
36416;DHT22;22447;44.530;18.620;2022-08-19T08:26:43;34.10;50.20
36416;DHT22;22447;44.530;18.620;2022-08-19T08:29:11;34.20;51.10
36416;DHT22;22447;44.530;18.620;2022-08-19T08:31:43;34.20;51.10
36416;DHT22;22447;44.530;18.620;2022-08-19T08:34:10;34.00;51.80
36416;DHT22;22447;44.530;18.620;2022-08-19T08:36:42;33.90;51.30
36416;DHT22;22447;44.530;18.620;2022-08-19T08:39:28;33.50;52.00
36416;DHT22;22447;44.530;18.620;2022-08-19T08:42:09;33.40;55.20
36416;DHT22;22447;44.530;18.620;2022-08-19T08:44:51;33.80;53.30
36416;DHT22;22447;44.530;18.620;2022-08-19T08:47:20;33.90;51.80
36416;DHT22;22447;44.530;18.620;2022-08-19T08:49:56;34.50;50.70
36416;DHT22;22447;44.530;18.620;2022-08-19T08:52:26;34.50;46.60
36416;DHT22;22447;44.530;18.620;2022-08-19T08:54:55;34.50;45.10
36416;DHT22;22447;44.530;18.620;2022-08-19T08:57:32;35.00;45.40
36416;DHT22;22447;44.530;18.620;2022-08-19T09:00:04;35.40;44.00
36416;DHT22;22447;44.530;18.620;2022-08-19T09:02:31;35.70;43.60
36416;DHT22;22447;44.530;18.620;2022-08-19T09:04:58;36.00;43.60
36416;DHT22;22447;44.530;18.620;2022-08-19T09:07:26;36.30;42.50
36416;DHT22;22447;44.530;18.620;2022-08-19T09:10:10;36.80;42.60
36416;DHT22;22447;44.530;18.620;2022-08-19T09:13:03;36.80;41.00
36416;DHT22;22447;44.530;18.620;2022-08-19T09:16:07;37.20;42.30
36416;DHT22;22447;44.530;18.620;2022-08-19T09:18:55;37.20;40.30
36416;DHT22;22447;44.530;18.620;2022-08-19T09:21:24;37.60;41.20
36416;DHT22;22447;44.530;18.620;2022-08-19T09:23:51;37.40;39.60
36416;DHT22;22447;44.530;18.620;2022-08-19T09:26:20;37.70;41.60
36416;DHT22;22447;44.530;18.620;2022-08-19T09:28:49;38.20;41.30
36416;DHT22;22447;44.530;18.620;2022-08-19T09:31:19;38.00;39.20
36416;DHT22;22447;44.530;18.620;2022-08-19T09:33:47;37.70;39.50
36416;DHT22;22447;44.530;18.620;2022-08-19T09:36:16;37.20;40.40
36416;DHT22;22447;44.530;18.620;2022-08-19T09:38:43;37.20;40.60
36416;DHT22;22447;44.530;18.620;2022-08-19T09:41:16;36.80;41.70
36416;DHT22;22447;44.530;18.620;2022-08-19T09:43:48;36.80;43.00
36416;DHT22;22447;44.530;18.620;2022-08-19T09:46:18;36.80;43.90
36416;DHT22;22447;44.530;18.620;2022-08-19T09:48:47;36.30;43.50
36416;DHT22;22447;44.530;18.620;2022-08-19T09:51:23;35.80;44.60
36416;DHT22;22447;44.530;18.620;2022-08-19T09:53:50;35.50;46.30
36416;DHT22;22447;44.530;18.620;2022-08-19T09:56:18;35.40;46.90
36416;DHT22;22447;44.530;18.620;2022-08-19T09:58:45;35.40;47.20
36416;DHT22;22447;44.530;18.620;2022-08-19T10:01:18;35.10;47.30
36416;DHT22;22447;44.530;18.620;2022-08-19T10:03:47;34.90;44.90
36416;DHT22;22447;44.530;18.620;2022-08-19T10:06:14;34.60;45.30
36416;DHT22;22447;44.530;18.620;2022-08-19T10:08:40;34.10;45.20
36416;DHT22;22447;44.530;18.620;2022-08-19T10:11:06;33.80;46.30
36416;DHT22;22447;44.530;18.620;2022-08-19T10:13:32;33.80;48.40
36416;DHT22;22447;44.530;18.620;2022-08-19T10:16:06;33.80;46.00
36416;DHT22;22447;44.530;18.620;2022-08-19T10:18:33;33.90;46.50
36416;DHT22;22447;44.530;18.620;2022-08-19T10:21:27;34.10;45.40
36416;DHT22;22447;44.530;18.620;2022-08-19T10:23:56;34.30;43.40
36416;DHT22;22447;44.530;18.620;2022-08-19T10:26:28;34.80;43.90
36416;DHT22;22447;44.530;18.620;2022-08-19T10:28:55;35.10;41.40
36416;DHT22;22447;44.530;18.620;2022-08-19T10:31:25;35.20;42.60
36416;DHT22;22447;44.530;18.620;2022-08-19T10:33:52;35.40;42.20
36416;DHT22;22447;44.530;18.620;2022-08-19T10:36:25;35.80;42.40
36416;DHT22;22447;44.530;18.620;2022-08-19T10:38:53;35.80;41.50
36416;DHT22;22447;44.530;18.620;2022-08-19T10:41:24;35.80;43.20
36416;DHT22;22447;44.530;18.620;2022-08-19T10:43:52;36.00;42.00
36416;DHT22;22447;44.530;18.620;2022-08-19T10:46:21;35.90;42.60
36416;DHT22;22447;44.530;18.620;2022-08-19T10:48:48;36.00;43.10
36416;DHT22;22447;44.530;18.620;2022-08-19T10:51:15;36.10;43.00
36416;DHT22;22447;44.530;18.620;2022-08-19T10:53:59;36.00;43.30
36416;DHT22;22447;44.530;18.620;2022-08-19T10:56:27;35.80;43.20
36416;DHT22;22447;44.530;18.620;2022-08-19T10:59:12;35.70;43.80
36416;DHT22;22447;44.530;18.620;2022-08-19T11:01:41;35.90;44.10
36416;DHT22;22447;44.530;18.620;2022-08-19T11:04:07;35.80;44.10
36416;DHT22;22447;44.530;18.620;2022-08-19T11:06:39;35.80;43.60
36416;DHT22;22447;44.530;18.620;2022-08-19T11:09:07;35.80;45.80
36416;DHT22;22447;44.530;18.620;2022-08-19T11:11:39;35.90;43.60
36416;DHT22;22447;44.530;18.620;2022-08-19T11:14:16;35.70;44.30
36416;DHT22;22447;44.530;18.620;2022-08-19T11:16:48;36.30;43.00
36416;DHT22;22447;44.530;18.620;2022-08-19T11:19:15;36.50;41.90
36416;DHT22;22447;44.530;18.620;2022-08-19T11:21:46;36.10;42.60
36416;DHT22;22447;44.530;18.620;2022-08-19T11:24:19;36.20;43.70
36416;DHT22;22447;44.530;18.620;2022-08-19T11:26:46;35.70;43.40
36416;DHT22;22447;44.530;18.620;2022-08-19T11:29:16;35.70;44.10
36416;DHT22;22447;44.530;18.620;2022-08-19T11:31:46;35.40;44.60
36416;DHT22;22447;44.530;18.620;2022-08-19T11:34:16;35.40;44.10
36416;DHT22;22447;44.530;18.620;2022-08-19T11:36:44;35.10;44.90
36416;DHT22;22447;44.530;18.620;2022-08-19T11:39:12;34.90;45.40
36416;DHT22;22447;44.530;18.620;2022-08-19T11:41:39;34.60;44.70
36416;DHT22;22447;44.530;18.620;2022-08-19T11:44:06;34.10;45.70
36416;DHT22;22447;44.530;18.620;2022-08-19T11:46:34;33.80;45.90
36416;DHT22;22447;44.530;18.620;2022-08-19T11:49:01;33.20;45.90
36416;DHT22;22447;44.530;18.620;2022-08-19T11:51:29;33.00;46.90
36416;DHT22;22447;44.530;18.620;2022-08-19T11:53:59;32.90;46.60
36416;DHT22;22447;44.530;18.620;2022-08-19T11:56:26;32.90;47.10
36416;DHT22;22447;44.530;18.620;2022-08-19T11:58:54;33.00;46.70
36416;DHT22;22447;44.530;18.620;2022-08-19T12:01:24;33.30;47.10
36416;DHT22;22447;44.530;18.620;2022-08-19T12:03:52;33.30;45.50
36416;DHT22;22447;44.530;18.620;2022-08-19T12:06:22;33.50;45.60
36416;DHT22;22447;44.530;18.620;2022-08-19T12:08:52;33.40;44.60
36416;DHT22;22447;44.530;18.620;2022-08-19T12:11:20;33.20;45.50
36416;DHT22;22447;44.530;18.620;2022-08-19T12:13:46;33.10;45.60
36416;DHT22;22447;44.530;18.620;2022-08-19T12:16:19;32.90;46.00
36416;DHT22;22447;44.530;18.620;2022-08-19T12:18:46;32.60;46.20
36416;DHT22;22447;44.530;18.620;2022-08-19T12:21:17;32.40;47.40
36416;DHT22;22447;44.530;18.620;2022-08-19T12:23:43;32.60;48.40
36416;DHT22;22447;44.530;18.620;2022-08-19T12:26:11;33.10;48.70
36416;DHT22;22447;44.530;18.620;2022-08-19T12:28:38;33.60;47.80
36416;DHT22;22447;44.530;18.620;2022-08-19T12:31:05;33.80;47.20
36416;DHT22;22447;44.530;18.620;2022-08-19T12:33:32;33.70;46.40
36416;DHT22;22447;44.530;18.620;2022-08-19T12:36:04;33.70;46.80
36416;DHT22;22447;44.530;18.620;2022-08-19T12:38:31;33.60;47.40
36416;DHT22;22447;44.530;18.620;2022-08-19T12:40:58;33.60;47.00
36416;DHT22;22447;44.530;18.620;2022-08-19T12:43:24;33.40;47.60
36416;DHT22;22447;44.530;18.620;2022-08-19T12:45:50;33.30;47.30
36416;DHT22;22447;44.530;18.620;2022-08-19T12:48:16;33.20;47.30
36416;DHT22;22447;44.530;18.620;2022-08-19T12:50:44;32.90;48.30
36416;DHT22;22447;44.530;18.620;2022-08-19T12:53:13;32.60;48.60
36416;DHT22;22447;44.530;18.620;2022-08-19T12:55:40;32.30;50.30
36416;DHT22;22447;44.530;18.620;2022-08-19T12:58:06;32.10;50.80
36416;DHT22;22447;44.530;18.620;2022-08-19T13:00:32;31.90;50.70
36416;DHT22;22447;44.530;18.620;2022-08-19T13:02:59;31.70;51.80
36416;DHT22;22447;44.530;18.620;2022-08-19T13:05:28;31.30;52.10
36416;DHT22;22447;44.530;18.620;2022-08-19T13:07:57;31.20;53.10
36416;DHT22;22447;44.530;18.620;2022-08-19T13:10:27;31.10;53.50
36416;DHT22;22447;44.530;18.620;2022-08-19T13:12:54;30.80;54.00
36416;DHT22;22447;44.530;18.620;2022-08-19T13:15:21;30.70;54.40
36416;DHT22;22447;44.530;18.620;2022-08-19T13:17:49;30.50;54.40
36416;DHT22;22447;44.530;18.620;2022-08-19T13:20:17;30.30;55.30
36416;DHT22;22447;44.530;18.620;2022-08-19T13:22:45;30.20;57.40
36416;DHT22;22447;44.530;18.620;2022-08-19T13:25:12;30.10;67.90
36416;DHT22;22447;44.530;18.620;2022-08-19T13:27:39;29.60;77.90
36416;DHT22;22447;44.530;18.620;2022-08-19T13:30:08;28.80;95.30
36416;DHT22;22447;44.530;18.620;2022-08-19T13:32:53;28.90;99.60
36416;DHT22;22447;44.530;18.620;2022-08-19T13:35:39;29.10;99.90
36416;DHT22;22447;44.530;18.620;2022-08-19T13:38:05;29.20;99.90
36416;DHT22;22447;44.530;18.620;2022-08-19T13:40:32;29.00;99.90
36416;DHT22;22447;44.530;18.620;2022-08-19T13:43:02;29.10;99.90
36416;DHT22;22447;44.530;18.620;2022-08-19T13:45:30;29.00;98.20
36416;DHT22;22447;44.530;18.620;2022-08-19T13:47:59;28.90;98.20
36416;DHT22;22447;44.530;18.620;2022-08-19T13:50:29;29.00;98.80
36416;DHT22;22447;44.530;18.620;2022-08-19T13:52:57;28.90;99.50
36416;DHT22;22447;44.530;18.620;2022-08-19T13:55:23;29.10;97.80
36416;DHT22;22447;44.530;18.620;2022-08-19T13:57:54;29.20;93.40
36416;DHT22;22447;44.530;18.620;2022-08-19T14:00:22;28.80;90.20
36416;DHT22;22447;44.530;18.620;2022-08-19T14:02:53;28.60;86.00
36416;DHT22;22447;44.530;18.620;2022-08-19T14:05:20;28.70;82.50
36416;DHT22;22447;44.530;18.620;2022-08-19T14:07:46;28.80;81.90
36416;DHT22;22447;44.530;18.620;2022-08-19T14:10:14;28.90;87.00
36416;DHT22;22447;44.530;18.620;2022-08-19T14:12:41;28.90;82.60
36416;DHT22;22447;44.530;18.620;2022-08-19T14:15:09;28.80;78.20
36416;DHT22;22447;44.530;18.620;2022-08-19T14:17:43;28.70;76.50
36416;DHT22;22447;44.530;18.620;2022-08-19T14:20:10;28.50;75.90
36416;DHT22;22447;44.530;18.620;2022-08-19T14:22:39;28.40;79.30
36416;DHT22;22447;44.530;18.620;2022-08-19T14:25:08;28.30;81.30
36416;DHT22;22447;44.530;18.620;2022-08-19T14:27:39;28.00;76.70
36416;DHT22;22447;44.530;18.620;2022-08-19T14:30:09;28.10;87.00
36416;DHT22;22447;44.530;18.620;2022-08-19T14:32:35;28.00;84.00
36416;DHT22;22447;44.530;18.620;2022-08-19T14:35:02;27.70;80.90
36416;DHT22;22447;44.530;18.620;2022-08-19T14:37:28;27.60;85.40
36416;DHT22;22447;44.530;18.620;2022-08-19T14:39:54;27.70;77.70
36416;DHT22;22447;44.530;18.620;2022-08-19T14:42:20;27.60;82.20
36416;DHT22;22447;44.530;18.620;2022-08-19T14:44:46;27.50;83.80
36416;DHT22;22447;44.530;18.620;2022-08-19T14:47:12;27.50;88.60
36416;DHT22;22447;44.530;18.620;2022-08-19T14:49:38;27.30;86.10
36416;DHT22;22447;44.530;18.620;2022-08-19T14:52:05;27.40;82.60
36416;DHT22;22447;44.530;18.620;2022-08-19T14:54:31;27.30;82.20
36416;DHT22;22447;44.530;18.620;2022-08-19T14:56:57;27.30;84.10
36416;DHT22;22447;44.530;18.620;2022-08-19T14:59:23;27.20;81.70
36416;DHT22;22447;44.530;18.620;2022-08-19T15:01:49;27.30;82.10
36416;DHT22;22447;44.530;18.620;2022-08-19T15:04:15;27.30;81.70
36416;DHT22;22447;44.530;18.620;2022-08-19T15:06:41;27.40;83.00
36416;DHT22;22447;44.530;18.620;2022-08-19T15:09:08;27.40;83.20
36416;DHT22;22447;44.530;18.620;2022-08-19T15:11:34;27.40;83.20
36416;DHT22;22447;44.530;18.620;2022-08-19T15:14:01;27.30;82.40
36416;DHT22;22447;44.530;18.620;2022-08-19T15:16:27;27.20;81.60
36416;DHT22;22447;44.530;18.620;2022-08-19T15:18:56;27.20;83.20
36416;DHT22;22447;44.530;18.620;2022-08-19T15:21:23;27.20;83.60
36416;DHT22;22447;44.530;18.620;2022-08-19T15:23:50;27.20;84.40
36416;DHT22;22447;44.530;18.620;2022-08-19T15:26:19;27.20;86.50
36416;DHT22;22447;44.530;18.620;2022-08-19T15:28:45;27.20;86.90
36416;DHT22;22447;44.530;18.620;2022-08-19T15:31:13;27.30;91.90